createdAt,value
2023-04-15T00:01:41.033Z,83.80
2023-04-15T00:05:37.735Z,83.72
2023-04-15T00:09:02.505Z,83.42
2023-04-15T00:12:58.272Z,83.10
2023-04-15T00:16:22.564Z,83.13
2023-04-15T00:20:18.989Z,83.57
2023-04-15T00:24:05.958Z,83.08
2023-04-15T00:27:49.069Z,83.44
2023-04-15T00:31:16.321Z,83.20
2023-04-15T00:34:52.764Z,82.89
2023-04-15T00:38:32.363Z,82.93
2023-04-15T00:42:26.021Z,82.77
2023-04-15T00:45:52.392Z,83.00
2023-04-15T00:49:50.987Z,83.17
2023-04-15T00:53:18.666Z,83.21
2023-04-15T00:56:56.633Z,83.37
2023-04-15T01:00:33.401Z,83.43
2023-04-15T01:04:30.104Z,83.22
2023-04-15T01:07:57.758Z,83.42
2023-04-15T01:11:54.336Z,83.50
2023-04-15T01:15:40.734Z,83.58
2023-04-15T01:19:10.983Z,83.47
2023-04-15T01:22:45.734Z,83.81
2023-04-15T01:26:46.610Z,83.55
2023-04-15T01:30:16.045Z,83.25
2023-04-15T01:34:07.409Z,83.19
2023-04-15T01:37:50.622Z,83.32
2023-04-15T01:41:37.002Z,83.07
2023-04-15T01:45:21.301Z,83.32
2023-04-15T01:48:49.755Z,82.92
2023-04-15T01:52:46.344Z,83.14
2023-04-15T01:56:13.474Z,83.94
2023-04-15T02:00:11.011Z,84.58
2023-04-15T02:04:28.016Z,83.40
2023-04-15T02:07:54.631Z,83.25
2023-04-15T02:11:52.353Z,83.10
2023-04-15T02:15:17.431Z,83.13
2023-04-15T02:19:13.407Z,83.02
2023-04-15T02:22:37.680Z,82.99
2023-04-15T02:26:34.455Z,83.09
2023-04-15T02:30:17.699Z,83.21
2023-04-15T02:34:03.622Z,83.15
2023-04-15T02:37:30.583Z,83.32
2023-04-15T02:41:06.231Z,83.06
2023-04-15T02:44:44.443Z,83.01
2023-04-15T02:48:22.020Z,83.20
2023-04-15T02:52:18.219Z,82.71
2023-04-15T02:58:34.806Z,82.66
2023-04-15T03:02:40.276Z,82.85
2023-04-15T03:06:28.428Z,83.15
2023-04-15T03:09:52.946Z,83.27
2023-04-15T03:13:53.538Z,83.32
2023-04-15T03:17:24.980Z,83.39
2023-04-15T03:21:03.236Z,83.31
2023-04-15T03:24:58.886Z,83.02
2023-04-15T03:28:42.395Z,83.22
2023-04-15T03:32:26.911Z,83.61
2023-04-15T03:35:53.834Z,83.49
2023-04-15T03:39:31.661Z,83.41
2023-04-15T03:43:09.027Z,83.30
2023-04-15T03:46:46.592Z,83.75
2023-04-15T03:50:24.474Z,84.27
2023-04-15T03:54:02.593Z,84.52
2023-04-15T03:57:41.477Z,84.26
2023-04-15T04:01:18.474Z,83.83
2023-04-15T04:05:15.124Z,83.70
2023-04-15T04:09:03.173Z,83.65
2023-04-15T04:12:27.304Z,83.32
2023-04-15T04:16:05.505Z,83.81
2023-04-15T04:19:42.771Z,83.75
2023-04-15T04:23:40.543Z,83.94
2023-04-15T04:27:06.642Z,83.87
2023-04-15T04:30:44.302Z,84.08
2023-04-15T04:34:40.998Z,84.52
2023-04-15T04:38:24.632Z,84.39
2023-04-15T04:42:07.781Z,84.36
2023-04-15T04:45:51.431Z,84.25
2023-04-15T04:49:35.117Z,84.43
2023-04-15T04:53:18.251Z,84.89
2023-04-15T04:56:42.371Z,84.62
2023-04-15T05:00:20.490Z,84.66
2023-04-15T05:04:16.938Z,84.32
2023-04-15T05:07:41.474Z,84.17
2023-04-15T05:11:19.101Z,84.04
2023-04-15T05:14:57.106Z,83.98
2023-04-15T05:18:53.465Z,83.85
2023-04-15T05:22:36.718Z,83.77
2023-04-15T05:26:21.090Z,83.72
2023-04-15T05:30:06.804Z,83.63
2023-04-15T05:33:35.873Z,83.17
2023-04-15T05:37:30.520Z,83.06
2023-04-15T05:41:16.530Z,82.72
2023-04-15T05:45:00.876Z,82.60
2023-04-15T05:48:43.896Z,82.63
2023-04-15T05:52:07.992Z,82.64
2023-04-15T05:56:04.566Z,82.80
2023-04-15T05:59:48.408Z,82.32
2023-04-15T06:03:13.534Z,81.81
2023-04-15T06:07:09.762Z,81.64
2023-04-15T06:10:56.022Z,81.27
2023-04-15T06:14:39.915Z,81.47
2023-04-15T06:18:24.136Z,81.67
2023-04-15T06:22:07.328Z,81.84
2023-04-15T06:25:32.386Z,82.16
2023-04-15T06:29:29.147Z,81.80
2023-04-15T06:33:13.006Z,82.13
2023-04-15T06:36:57.933Z,81.94
2023-04-15T06:40:41.729Z,82.36
2023-04-15T06:44:06.499Z,81.77
2023-04-15T06:47:44.233Z,81.60
2023-04-15T06:51:22.385Z,81.70
2023-04-15T06:55:03.836Z,80.97
2023-04-15T06:58:37.020Z,80.86
2023-04-15T07:02:33.886Z,79.72
2023-04-15T07:06:21.200Z,79.16
2023-04-15T07:09:47.861Z,78.14
2023-04-15T07:13:46.150Z,78.38
2023-04-15T07:17:13.488Z,78.32
2023-04-15T07:21:10.679Z,78.35
2023-04-15T07:24:35.637Z,76.81
2023-04-15T07:28:31.933Z,75.90
2023-04-15T07:32:15.074Z,76.33
2023-04-15T07:35:41.728Z,76.42
2023-04-15T07:39:36.596Z,76.13
2023-04-15T07:43:21.389Z,74.44
2023-04-15T07:47:06.228Z,75.18
2023-04-15T07:50:30.304Z,73.95
2023-04-15T07:54:27.132Z,74.49
2023-04-15T07:58:10.906Z,73.45
2023-04-15T08:01:54.566Z,73.39
2023-04-15T08:05:38.053Z,71.91
2023-04-15T08:09:24.430Z,70.23
2023-04-15T08:13:07.630Z,66.73
2023-04-15T08:16:32.679Z,68.04
2023-04-15T08:20:29.551Z,69.41
2023-04-15T08:24:15.049Z,68.14
2023-04-15T08:28:04.778Z,68.81
2023-04-15T08:31:50.965Z,68.62
2023-04-15T08:35:33.881Z,68.34
2023-04-15T08:38:58.619Z,66.82
2023-04-15T08:42:45.031Z,63.47
2023-04-15T08:46:14.056Z,62.64
2023-04-15T08:50:12.144Z,60.30
2023-04-15T08:53:40.904Z,62.73
2023-04-15T08:57:36.706Z,60.85
2023-04-15T09:01:24.032Z,62.91
2023-04-15T09:05:09.527Z,62.81
2023-04-15T09:08:35.990Z,60.76
2023-04-15T09:12:14.436Z,60.53
2023-04-15T09:16:09.705Z,61.34
2023-04-15T09:20:14.181Z,62.03
2023-04-15T09:23:45.115Z,62.39
2023-04-15T09:27:16.859Z,61.81
2023-04-15T09:30:58.315Z,61.52
2023-04-15T09:34:50.436Z,60.59
2023-04-15T09:38:33.758Z,60.70
2023-04-15T09:42:23.807Z,60.72
2023-04-15T09:46:11.970Z,59.52
2023-04-15T09:49:36.967Z,59.18
2023-04-15T09:53:35.869Z,58.51
2023-04-15T09:57:06.333Z,58.33
2023-04-15T10:00:38.494Z,57.40
2023-04-15T10:04:40.914Z,58.28
2023-04-15T10:08:10.884Z,56.39
2023-04-15T10:12:05.080Z,55.48
2023-04-15T10:15:32.850Z,55.21
2023-04-15T10:19:09.614Z,53.31
2023-04-15T10:23:06.845Z,52.56
2023-04-15T10:26:33.617Z,53.09
2023-04-15T10:30:32.605Z,54.21
2023-04-15T10:33:59.132Z,52.22
2023-04-15T10:37:53.626Z,52.33
2023-04-15T10:41:37.152Z,53.06
2023-04-15T10:45:20.818Z,52.22
2023-04-15T10:48:53.250Z,51.83
2023-04-15T10:52:26.203Z,53.37
2023-04-15T10:56:00.569Z,53.70
2023-04-15T11:00:13.450Z,52.11
2023-04-15T11:03:42.855Z,51.82
2023-04-15T11:07:41.881Z,51.55
2023-04-15T11:12:07.907Z,53.16
2023-04-15T11:15:57.581Z,52.37
2023-04-15T11:19:24.920Z,51.73
2023-04-15T11:23:38.812Z,52.98
2023-04-15T11:27:27.237Z,51.99
2023-04-15T11:31:14.217Z,52.85
2023-04-15T11:34:57.803Z,52.22
2023-04-15T11:38:22.985Z,50.03
2023-04-15T11:42:18.754Z,50.69
2023-04-15T11:46:03.199Z,50.66
2023-04-15T11:49:46.411Z,50.27
2023-04-15T11:53:50.370Z,49.00
2023-04-15T11:57:35.041Z,48.51
2023-04-15T12:01:00.941Z,48.44
2023-04-15T12:05:06.073Z,46.62
2023-04-15T12:08:57.653Z,46.28
2023-04-15T12:12:43.297Z,48.16
2023-04-15T12:16:07.830Z,46.16
2023-04-15T12:19:45.637Z,47.52
2023-04-15T12:23:23.707Z,42.50
2023-04-15T12:27:10.563Z,44.86
2023-04-15T12:30:51.548Z,44.37
2023-04-15T12:34:38.441Z,46.18
2023-04-15T12:38:03.041Z,46.54
2023-04-15T12:41:41.043Z,46.56
2023-04-15T12:45:19.239Z,44.86
2023-04-15T12:49:20.213Z,46.83
2023-04-15T12:53:07.144Z,47.12
2023-04-15T12:56:51.727Z,46.63
2023-04-15T13:00:35.141Z,46.73
2023-04-15T13:03:59.825Z,46.33
2023-04-15T13:07:56.351Z,45.62
2023-04-15T13:11:24.289Z,46.81
2023-04-15T13:15:22.076Z,42.79
2023-04-15T13:18:46.600Z,41.89
2023-04-15T13:22:23.951Z,43.37
2023-04-15T13:26:20.586Z,44.34
2023-04-15T13:29:46.932Z,42.36
2023-04-15T13:33:42.752Z,43.30
2023-04-15T13:37:08.712Z,42.93
2023-04-15T13:40:45.970Z,44.83
2023-04-15T13:44:23.172Z,45.20
2023-04-15T13:48:01.230Z,43.85
2023-04-15T13:51:57.627Z,44.88
2023-04-15T13:55:42.193Z,45.30
2023-04-15T13:59:25.611Z,45.48
2023-04-15T14:03:09.485Z,46.85
2023-04-15T14:06:54.974Z,55.63
2023-04-15T14:10:41.447Z,57.74
2023-04-15T14:14:06.955Z,58.53
2023-04-15T14:17:44.569Z,59.32
2023-04-15T14:21:22.377Z,61.98
2023-04-15T14:25:02.453Z,62.25
2023-04-15T14:28:39.468Z,67.33
2023-04-15T14:32:34.129Z,71.40
2023-04-15T14:36:19.234Z,74.29
2023-04-15T14:40:05.977Z,75.55
2023-04-15T14:43:49.852Z,76.03
2023-04-15T14:47:15.283Z,76.34
2023-04-15T14:50:53.336Z,75.65
2023-04-15T14:54:49.740Z,74.08
2023-04-15T14:58:33.362Z,72.25
2023-04-15T15:02:36.720Z,71.33
2023-04-15T15:06:22.853Z,70.47
2023-04-15T15:09:47.523Z,69.30
2023-04-15T15:13:25.658Z,67.89
2023-04-15T15:17:25.078Z,66.64
2023-04-15T15:20:51.603Z,64.34
2023-04-15T15:24:47.960Z,62.78
2023-04-15T15:28:12.437Z,63.42
2023-04-15T15:31:50.466Z,63.55
2023-04-15T15:35:46.959Z,61.69
2023-04-15T15:39:30.517Z,61.13
2023-04-15T15:43:14.604Z,61.82
2023-04-15T15:46:58.228Z,62.11
2023-04-15T15:50:42.656Z,62.89
2023-04-15T15:54:28.629Z,62.78
2023-04-15T15:58:16.460Z,62.97
2023-04-15T16:01:45.005Z,62.40
2023-04-15T16:05:19.688Z,61.06
2023-04-15T16:08:56.986Z,59.96
2023-04-15T16:12:35.139Z,60.47
2023-04-15T16:16:31.331Z,61.08
2023-04-15T16:20:14.787Z,61.33
2023-04-15T16:24:00.976Z,60.86
2023-04-15T16:27:28.123Z,60.31
2023-04-15T16:31:03.134Z,60.72
2023-04-15T16:34:59.849Z,60.21
2023-04-15T16:38:47.771Z,59.73
2023-04-15T16:42:13.870Z,60.45
2023-04-15T16:46:10.164Z,60.32
2023-04-15T16:49:35.672Z,60.66
2023-04-15T16:53:15.384Z,61.50
2023-04-15T16:56:51.164Z,62.47
2023-04-15T17:00:51.554Z,63.29
2023-04-15T17:04:37.555Z,63.95
2023-04-15T17:08:24.429Z,64.98
2023-04-15T17:12:10.249Z,66.07
2023-04-15T17:15:55.842Z,67.31
2023-04-15T17:19:39.774Z,68.43
2023-04-15T17:23:24.466Z,68.98
2023-04-15T17:27:11.987Z,69.63
2023-04-15T17:30:55.637Z,70.24
2023-04-15T17:34:50.036Z,71.22
2023-04-15T17:38:15.424Z,71.64
2023-04-15T17:42:14.084Z,71.63
2023-04-15T17:45:38.600Z,72.46
2023-04-15T17:49:37.376Z,73.02
2023-04-15T17:53:24.713Z,73.79
2023-04-15T17:56:52.009Z,73.79
2023-04-15T18:00:30.018Z,73.95
2023-04-15T18:04:26.841Z,73.06
2023-04-15T18:08:13.218Z,72.71
2023-04-15T18:11:43.959Z,72.38
2023-04-15T18:15:40.300Z,72.98
2023-04-15T18:19:05.593Z,73.69
2023-04-15T18:22:43.615Z,74.30
2023-04-15T18:26:21.993Z,74.88
2023-04-15T18:29:58.663Z,76.23
2023-04-15T18:33:55.213Z,76.46
2023-04-15T18:37:39.979Z,76.72
2023-04-15T18:41:24.852Z,77.75
2023-04-15T18:44:49.903Z,77.67
2023-04-15T18:48:48.882Z,77.89
2023-04-15T18:52:14.623Z,78.27
2023-04-15T18:55:51.875Z,78.63
2023-04-15T18:59:30.857Z,79.09
2023-04-15T19:03:26.999Z,79.33
2023-04-15T19:06:52.374Z,78.72
2023-04-15T19:10:49.138Z,79.21
2023-04-15T19:14:13.903Z,78.38
2023-04-15T19:18:13.801Z,77.80
2023-04-15T19:21:58.582Z,77.64
2023-04-15T19:25:26.752Z,77.47
2023-04-15T19:29:23.802Z,77.48
2023-04-15T19:33:07.308Z,77.35
2023-04-15T19:36:34.160Z,76.80
2023-04-15T19:40:30.445Z,76.25
2023-04-15T19:44:15.863Z,76.47
2023-04-15T19:47:43.070Z,76.48
2023-04-15T19:51:20.988Z,75.80
2023-04-15T19:55:15.911Z,76.42
2023-04-15T19:59:01.065Z,76.55
2023-04-15T20:02:48.904Z,77.19
2023-04-15T20:06:15.009Z,77.27
2023-04-15T20:09:52.130Z,77.45
2023-04-15T20:13:30.859Z,77.11
2023-04-15T20:17:28.510Z,78.08
2023-04-15T20:21:12.579Z,79.92
2023-04-15T20:24:39.061Z,79.24
2023-04-15T20:28:34.914Z,78.89
2023-04-15T20:32:19.917Z,78.78
2023-04-15T20:36:04.800Z,78.85
2023-04-15T20:39:30.190Z,79.28
2023-04-15T20:43:28.060Z,81.21
2023-04-15T20:46:53.778Z,82.66
2023-04-15T20:50:30.534Z,81.50
2023-04-15T20:54:08.033Z,80.87
2023-04-15T20:57:48.187Z,80.62
2023-04-15T21:01:42.971Z,80.98
2023-04-15T21:05:11.325Z,81.56
2023-04-15T21:09:07.736Z,81.12
2023-04-15T21:12:33.475Z,80.86
2023-04-15T21:16:10.959Z,84.53
2023-04-15T21:19:48.302Z,88.48
2023-04-15T21:23:29.570Z,86.21
2023-04-15T21:27:05.209Z,90.81
2023-04-15T21:30:41.428Z,90.85
2023-04-15T21:34:19.070Z,92.44
2023-04-15T21:37:57.015Z,92.36
2023-04-15T21:41:58.985Z,93.30
2023-04-15T21:45:23.619Z,93.61
2023-04-15T21:49:20.045Z,96.02
2023-04-15T21:53:06.220Z,96.51
2023-04-15T21:56:53.490Z,95.45
2023-04-15T22:00:17.858Z,93.89
2023-04-15T22:04:07.977Z,94.74
2023-04-15T22:07:53.635Z,95.62
2023-04-15T22:11:26.865Z,96.75
2023-04-15T22:14:58.705Z,96.07
2023-04-15T22:18:52.898Z,97.11
2023-04-15T22:22:44.180Z,95.54
2023-04-15T22:26:28.230Z,96.06
2023-04-15T22:30:12.378Z,94.06
2023-04-15T22:33:36.988Z,93.02
2023-04-15T22:37:15.030Z,92.51
2023-04-15T22:40:54.106Z,91.95
2023-04-15T22:44:50.246Z,91.60
2023-04-15T22:48:34.476Z,91.17
2023-04-15T22:51:59.234Z,90.51
2023-04-15T22:55:37.060Z,90.03
2023-04-15T22:59:36.888Z,89.67
2023-04-15T23:03:03.788Z,88.66
2023-04-15T23:06:41.510Z,87.61
2023-04-15T23:10:17.483Z,87.56
2023-04-15T23:13:56.335Z,87.49
2023-04-15T23:17:33.072Z,87.76
2023-04-15T23:21:30.707Z,87.22
2023-04-15T23:24:55.006Z,87.21
2023-04-15T23:28:51.582Z,86.74
2023-04-15T23:32:16.821Z,87.16
2023-04-15T23:36:15.692Z,87.42
2023-04-15T23:39:40.989Z,87.25
2023-04-15T23:43:37.715Z,87.04
2023-04-15T23:47:03.122Z,87.48
2023-04-15T23:50:59.907Z,87.53
2023-04-15T23:54:43.350Z,87.21
2023-04-15T23:58:07.566Z,87.50
